Time;durP1;ratioP1;P1;durP2;ratioP2;P2;SDS_P1;SDS_P2;PMS_P1;PMS_P2;Temp;Humidity;BMP_temperature;BMP_pressure;BME280_temperature;BME280_humidity;BME280_pressure;Samples;Min_cycle;Max_cycle;Signal;HPM_P1;HPM_P2
2022/03/11 00:01:00;;;;;;;12.63;3.60;;;;;;;-2.62;32.47;100942.34;5008562;28;20062;-76
2022/03/11 00:03:26;;;;;;;12.00;3.67;;;;;;;-2.59;32.30;100928.63;5006941;28;20062;-76
2022/03/11 00:05:52;;;;;;;8.53;3.27;;;;;;;-2.67;32.57;100933.97;4992072;28;20104;-77
2022/03/11 00:08:19;;;;;;;11.83;3.47;;;;;;;-2.62;32.63;100930.81;4991735;28;20081;-76
2022/03/11 00:10:46;;;;;;;14.20;3.90;;;;;;;-2.60;32.55;100926.13;5004392;28;20495;-76
2022/03/11 00:13:12;;;;;;;14.32;3.20;;;;;;;-2.69;32.28;100919.91;4986146;28;20053;-76
2022/03/11 00:15:39;;;;;;;9.60;3.20;;;;;;;-2.74;32.58;100916.84;4975821;28;20073;-77
2022/03/11 00:18:06;;;;;;;11.00;3.43;;;;;;;-2.67;32.61;100927.75;5007839;28;20054;-77
2022/03/11 00:20:32;;;;;;;13.35;3.25;;;;;;;-2.63;32.31;100931.81;5007701;28;20054;-76
2022/03/11 00:22:59;;;;;;;10.80;3.07;;;;;;;-2.65;32.09;100928.47;5009422;28;20058;-77
2022/03/11 00:25:26;;;;;;;8.82;2.85;;;;;;;-2.64;32.05;100932.81;4994743;28;20073;-77
2022/03/11 00:27:52;;;;;;;14.60;3.90;;;;;;;-2.67;32.33;100923.25;4962432;28;20052;-77
2022/03/11 00:30:19;;;;;;;11.67;3.27;;;;;;;-2.66;32.20;100921.41;4992725;28;20514;-76
2022/03/11 00:32:46;;;;;;;18.67;3.13;;;;;;;-2.60;31.96;100928.81;5011443;28;20161;-76
2022/03/11 00:35:12;;;;;;;12.37;3.30;;;;;;;-2.60;31.95;100926.97;4994570;28;20049;-76
2022/03/11 00:37:40;;;;;;;8.03;2.73;;;;;;;-2.67;32.29;100915.22;5011057;28;20520;-77
2022/03/11 00:40:07;;;;;;;8.02;2.83;;;;;;;-2.71;32.17;100919.22;5009815;28;20454;-76
2022/03/11 00:42:34;;;;;;;;;;;;;;;-2.63;32.06;100929.97;4995365;28;20050;-76
2022/03/11 00:45:01;;;;;;;9.38;3.08;;;;;;;-2.73;32.14;100907.84;5012557;28;20380;-77
2022/03/11 00:47:29;;;;;;;14.80;3.47;;;;;;;-2.74;32.23;100916.84;5010700;28;20077;-77
2022/03/11 00:49:55;;;;;;;9.80;3.00;;;;;;;-2.75;32.14;100916.03;5011112;28;20141;-78
2022/03/11 00:52:21;;;;;;;11.30;3.20;;;;;;;-2.81;32.22;100900.63;5010655;28;20543;-78
2022/03/11 00:54:48;;;;;;;8.10;2.63;;;;;;;-2.85;32.41;100908.13;4994666;28;20064;-78
2022/03/11 00:57:16;;;;;;;12.67;2.77;;;;;;;-2.81;32.16;100911.31;5009956;28;20085;-77
2022/03/11 00:59:44;;;;;;;12.23;3.50;;;;;;;-2.76;32.49;100919.72;5008606;28;20157;-78
2022/03/11 01:02:10;;;;;;;10.35;2.95;;;;;;;-2.90;32.53;100904.22;4993876;28;20053;-77
2022/03/11 01:04:36;;;;;;;9.40;3.47;;;;;;;-2.86;32.31;100911.78;5012739;28;20116;-78
2022/03/11 01:07:03;;;;;;;11.40;3.13;;;;;;;-2.86;32.72;100919.81;4992043;28;20513;-77
2022/03/11 01:09:29;;;;;;;9.70;3.73;;;;;;;-2.87;32.40;100914.63;4994241;28;20046;-78
2022/03/11 01:11:58;;;;;;;10.20;2.90;;;;;;;-2.90;32.49;100913.09;4994595;28;20053;-77
2022/03/11 01:14:25;;;;;;;12.33;3.77;;;;;;;-2.89;32.26;100906.75;4994378;28;20140;-78
2022/03/11 01:16:51;;;;;;;13.93;3.90;;;;;;;-2.86;32.34;100905.59;5008637;28;20073;-80
2022/03/11 01:19:18;;;;;;;13.25;2.83;;;;;;;-2.85;32.39;100901.91;5010405;28;20050;-80
2022/03/11 01:21:43;;;;;;;10.83;3.20;;;;;;;-2.88;32.56;100902.22;5010849;28;20096;-79
2022/03/11 01:24:10;;;;;;;7.93;3.20;;;;;;;-2.88;32.28;100900.41;5010612;28;20053;-80
2022/03/11 01:26:37;;;;;;;9.20;3.00;;;;;;;-2.92;32.62;100898.22;5009359;28;20473;-79
2022/03/11 01:29:04;;;;;;;10.27;3.00;;;;;;;-2.92;32.58;100899.03;5010524;28;20058;-79
2022/03/11 01:31:31;;;;;;;10.43;2.97;;;;;;;-2.95;32.57;100902.03;4991440;28;20109;-80
2022/03/11 01:33:58;;;;;;;17.97;3.57;;;;;;;-2.96;32.41;100897.69;4970125;28;20470;-80
2022/03/11 01:36:24;;;;;;;12.50;3.75;;;;;;;-2.94;32.46;100894.84;5006707;28;20045;-79
2022/03/11 01:38:50;;;;;;;12.97;2.87;;;;;;;-2.96;32.50;100894.19;5011743;28;20108;-80
2022/03/11 01:41:16;;;;;;;13.03;3.33;;;;;;;-2.97;32.63;100900.50;5011268;28;20056;-79
2022/03/11 01:43:54;;;;;;;8.07;2.63;;;;;;;-3.05;32.60;100883.41;4992128;28;20068;-80
2022/03/11 01:46:21;;;;;;;11.70;3.23;;;;;;;-3.01;32.55;100887.44;5010101;28;20050;-79
2022/03/11 01:48:47;;;;;;;20.90;8.30;;;;;;;-3.02;32.74;100895.66;4994129;28;20062;-79
2022/03/11 01:51:15;;;;;;;25.57;9.43;;;;;;;-3.01;32.37;100895.47;5009922;28;20058;-78
2022/03/11 01:53:41;;;;;;;;;;;;;;;-3.02;32.79;100893.78;5010781;28;20597;-78
2022/03/11 01:56:07;;;;;;;20.00;5.67;;;;;;;-2.96;32.74;100888.81;5011152;28;20522;-78
2022/03/11 01:58:34;;;;;;;13.77;5.03;;;;;;;-3.01;32.66;100892.78;5011227;28;20062;-78
2022/03/11 02:01:04;;;;;;;13.77;3.67;;;;;;;-2.97;32.85;100879.94;5009294;28;20120;-78
2022/03/11 02:03:32;;;;;;;16.53;4.27;;;;;;;-3.02;32.80;100880.41;5007180;28;20100;-78
2022/03/11 02:06:02;;;;;;;11.07;3.15;;;;;;;-2.96;32.85;100886.16;4993814;28;20100;-78
2022/03/11 02:08:30;;;;;;;11.23;3.60;;;;;;;-2.97;32.79;100882.63;4993135;28;20422;-80
2022/03/11 02:10:56;;;;;;;11.60;3.47;;;;;;;-3.03;32.49;100877.91;5009835;28;20100;-80
2022/03/11 02:13:22;;;;;;;9.40;3.73;;;;;;;-2.99;33.01;100882.75;5009495;28;20054;-80
2022/03/11 02:15:49;;;;;;;11.13;2.97;;;;;;;-3.22;33.12;100846.84;5009895;28;20060;-81
2022/03/11 02:18:16;;;;;;;9.27;3.30;;;;;;;-3.06;32.91;100868.34;4992661;28;20530;-78
2022/03/11 02:20:42;;;;;;;13.50;3.50;;;;;;;-3.04;32.97;100879.72;5009046;28;20061;-78
2022/03/11 02:23:13;;;;;;;10.33;3.37;;;;;;;-3.05;32.97;100874.53;4993093;28;20058;-78
2022/03/11 02:25:42;;;;;;;15.23;3.20;;;;;;;-3.07;33.08;100874.69;5004967;28;20092;-77
2022/03/11 02:28:08;;;;;;;11.27;3.13;;;;;;;-3.11;33.08;100873.34;4975919;28;20054;-77
2022/03/11 02:30:35;;;;;;;15.77;3.67;;;;;;;-3.10;33.10;100879.53;5008812;28;20426;-78
2022/03/11 02:33:01;;;;;;;10.00;3.90;;;;;;;-3.19;33.06;100873.28;5011058;28;20057;-78
2022/03/11 02:35:29;;;;;;;12.90;3.47;;;;;;;-3.25;33.28;100869.41;4993380;28;20065;-76
2022/03/11 02:37:55;;;;;;;12.33;3.30;;;;;;;-3.21;33.17;100872.59;5009980;28;20054;-78
2022/03/11 02:40:21;;;;;;;9.77;3.53;;;;;;;-3.22;33.35;100869.06;4991549;28;20080;-77
2022/03/11 02:42:48;;;;;;;12.37;3.93;;;;;;;-3.27;33.37;100871.41;4993301;28;20061;-79
2022/03/11 02:45:15;;;;;;;14.23;3.63;;;;;;;-3.28;33.18;100875.94;5008196;28;20054;-79
2022/03/11 02:47:41;;;;;;;10.73;3.60;;;;;;;-3.30;33.42;100872.53;5009530;28;20518;-77
2022/03/11 02:50:08;;;;;;;11.50;3.47;;;;;;;-3.28;33.60;100875.06;5008474;28;20161;-77
2022/03/11 02:52:34;;;;;;;12.35;3.55;;;;;;;-3.30;33.47;100869.88;4992002;28;20050;-78
2022/03/11 02:55:00;;;;;;;10.07;3.50;;;;;;;-3.34;33.62;100868.50;5006208;28;20104;-79
2022/03/11 02:57:26;;;;;;;15.53;4.70;;;;;;;-3.36;33.91;100865.16;5007222;28;20429;-78
2022/03/11 02:59:54;;;;;;;16.73;4.10;;;;;;;-3.38;34.07;100874.31;5005950;28;20053;-79
2022/03/11 03:02:20;;;;;;;13.15;3.85;;;;;;;-3.57;33.99;100828.94;5008520;28;20153;-79
2022/03/11 03:04:46;;;;;;;19.97;3.80;;;;;;;-3.38;34.13;100863.63;5008718;28;20054;-78
2022/03/11 03:07:13;;;;;;;12.60;4.03;;;;;;;-3.38;34.31;100860.94;4987880;28;20078;-79
2022/03/11 03:09:41;;;;;;;20.38;4.03;;;;;;;-3.52;34.10;100841.81;5008366;28;20144;-79
2022/03/11 03:12:09;;;;;;;18.87;4.40;;;;;;;-3.42;34.39;100855.09;4992187;28;20057;-77
2022/03/11 03:14:36;;;;;;;13.70;3.80;;;;;;;-3.39;34.43;100861.94;5009619;28;20050;-78
2022/03/11 03:17:03;;;;;;;16.40;4.97;;;;;;;-3.45;34.55;100856.25;5000683;28;20066;-78
2022/03/11 03:19:30;;;;;;;;;;;;;;;-3.49;34.79;100851.34;4974534;28;20055;-78
2022/03/11 03:21:56;;;;;;;17.43;5.73;;;;;;;-3.72;34.60;100823.28;4990119;28;19977;-77
2022/03/11 03:24:22;;;;;;;13.60;4.23;;;;;;;-3.65;35.10;100836.06;5006585;28;20049;-80
2022/03/11 03:26:49;;;;;;;17.20;4.10;;;;;;;-3.66;35.17;100843.22;5008848;28;20470;-80
2022/03/11 03:29:15;;;;;;;20.27;4.77;;;;;;;-3.64;35.15;100849.25;4982064;28;20054;-75
2022/03/11 03:31:41;;;;;;;21.33;4.80;;;;;;;-3.65;35.19;100842.22;4993055;28;20058;-77
2022/03/11 03:34:09;;;;;;;17.43;4.53;;;;;;;-3.68;35.59;100842.53;4998503;28;20037;-77
2022/03/11 03:36:35;;;;;;;14.88;4.13;;;;;;;-3.68;35.45;100847.88;4992967;28;20141;-77
2022/03/11 03:39:01;;;;;;;15.33;4.80;;;;;;;-3.63;35.50;100842.06;4973747;28;20160;-77
2022/03/11 03:41:28;;;;;;;18.43;4.60;;;;;;;-3.63;35.25;100839.41;5005949;28;20168;-77
2022/03/11 03:43:54;;;;;;;11.63;4.27;;;;;;;-3.65;35.61;100828.03;4991548;28;20152;-77
2022/03/11 03:46:21;;;;;;;15.20;4.80;;;;;;;-3.65;35.68;100828.03;5009437;28;20066;-76
2022/03/11 03:48:47;;;;;;;18.23;4.57;;;;;;;-3.62;35.73;100833.88;5010649;28;20065;-78
2022/03/11 03:51:13;;;;;;;15.37;4.70;;;;;;;-3.65;35.61;100833.38;5006452;28;20053;-78
2022/03/11 03:53:40;;;;;;;14.30;4.78;;;;;;;-3.64;35.83;100830.53;5004111;28;20510;-78
2022/03/11 03:56:06;;;;;;;13.67;4.13;;;;;;;-3.65;35.99;100834.19;4992867;28;20157;-78
2022/03/11 03:58:35;;;;;;;16.27;4.50;;;;;;;-3.71;35.79;100822.28;5013431;28;20050;-78
2022/03/11 04:01:01;;;;;;;19.53;4.50;;;;;;;-3.63;35.91;100829.53;5013330;28;20192;-78
2022/03/11 04:03:27;;;;;;;14.87;4.60;;;;;;;-3.64;36.08;100825.19;5002705;28;20560;-77
2022/03/11 04:06:02;;;;;;;18.77;4.27;;;;;;;-3.63;35.75;100839.41;4983408;28;20112;-78
2022/03/11 04:08:30;;;;;;;21.77;4.97;;;;;;;-3.63;35.80;100834.88;4996171;28;20399;-78
2022/03/11 04:10:56;;;;;;;19.47;6.63;;;;;;;-3.61;36.07;100838.22;4994529;28;20152;-78
2022/03/11 04:13:23;;;;;;;64.23;22.83;;;;;;;-3.59;36.19;100824.72;4996840;28;20175;-78
2022/03/11 04:15:49;;;;;;;89.60;34.30;;;;;;;-3.62;36.00;100819.69;5002117;28;20141;-78
2022/03/11 04:18:15;;;;;;;87.53;31.83;;;;;;;-3.51;35.95;100829.28;5012260;28;20081;-78
2022/03/11 04:20:41;;;;;;;48.20;17.30;;;;;;;-3.51;36.18;100824.78;4994760;28;20054;-78
2022/03/11 04:23:08;;;;;;;38.50;12.27;;;;;;;-3.50;35.87;100825.59;5012381;28;20585;-78
2022/03/11 04:25:35;;;;;;;37.17;8.47;;;;;;;-3.67;35.78;100792.56;4993824;28;20049;-78
2022/03/11 04:28:01;;;;;;;16.45;5.60;;;;;;;-3.54;36.12;100810.88;5012733;28;20053;-78
2022/03/11 04:30:27;;;;;;;19.60;5.60;;;;;;;-3.51;36.12;100816.75;5008078;28;20053;-78
2022/03/11 04:32:54;;;;;;;22.10;4.73;;;;;;;-3.50;35.92;100810.41;4978887;28;20054;-78
2022/03/11 04:35:20;;;;;;;16.67;4.57;;;;;;;-3.52;36.39;100820.41;5006204;28;20254;-78
2022/03/11 04:37:46;;;;;;;16.53;5.20;;;;;;;-3.52;36.04;100819.59;5011723;28;20502;-78
2022/03/11 04:40:12;;;;;;;18.03;5.10;;;;;;;-3.52;36.30;100809.72;4992680;28;20643;-78
2022/03/11 04:42:40;;;;;;;23.73;5.27;;;;;;;-3.44;36.17;100808.94;4994834;28;20050;-79
2022/03/11 04:45:07;;;;;;;26.80;8.43;;;;;;;-3.43;36.48;100805.28;5011559;28;20050;-80
2022/03/11 04:47:33;;;;;;;103.63;29.80;;;;;;;-3.43;36.52;100806.09;5010738;28;20057;-79
2022/03/11 04:50:02;;;;;;;66.10;19.83;;;;;;;-3.42;36.20;100804.28;4993981;28;20404;-79
2022/03/11 04:52:29;;;;;;;47.33;12.60;;;;;;;-3.51;36.51;100787.34;5005690;28;20104;-79
2022/03/11 04:54:55;;;;;;;40.47;10.30;;;;;;;-3.38;36.28;100802.09;5010986;28;20045;-79
2022/03/11 04:57:21;;;;;;;30.70;7.80;;;;;;;-3.29;36.02;100806.50;4993693;28;20115;-79
2022/03/11 04:59:48;;;;;;;30.37;7.53;;;;;;;-3.28;36.53;100809.03;5010586;28;20138;-79
2022/03/11 05:02:24;;;;;;;33.00;8.70;;;;;;;-3.19;36.53;100799.22;5010721;28;20054;-79
2022/03/11 05:04:50;;;;;;;25.53;7.73;;;;;;;-3.11;36.39;100803.78;5010110;28;20080;-79
2022/03/11 05:07:16;;;;;;;27.77;7.13;;;;;;;-3.04;36.17;100804.78;5009384;28;20053;-79
2022/03/11 05:09:42;;;;;;;25.70;8.43;;;;;;;-3.01;36.41;100791.09;5011371;28;20054;-79
2022/03/11 05:12:09;;;;;;;29.87;9.13;;;;;;;-2.95;36.23;100800.31;4993293;28;20054;-78
2022/03/11 05:14:35;;;;;;;30.43;8.33;;;;;;;-2.89;36.32;100802.38;4994212;28;20046;-79
2022/03/11 05:17:03;;;;;;;34.33;8.17;;;;;;;-2.84;36.04;100796.50;4993203;28;20054;-80
2022/03/11 05:19:31;;;;;;;26.80;7.30;;;;;;;-2.75;36.11;100802.72;5003211;28;20058;-80
2022/03/11 05:21:57;;;;;;;21.03;7.63;;;;;;;-2.75;36.14;100794.69;4977822;28;20544;-80
2022/03/11 05:24:24;;;;;;;29.20;7.65;;;;;;;-2.77;35.89;100783.31;4993021;28;20144;-79
2022/03/11 05:26:50;;;;;;;31.63;9.97;;;;;;;-2.66;35.75;100790.19;4993007;28;20064;-79
2022/03/11 05:29:16;;;;;;;56.87;13.77;;;;;;;-2.55;35.84;100792.56;5011880;28;20060;-79
2022/03/11 05:31:43;;;;;;;32.28;10.95;;;;;;;-2.46;35.46;100788.06;5011173;28;20104;-79
2022/03/11 05:34:11;;;;;;;37.57;9.50;;;;;;;-2.31;35.29;100785.59;5008522;28;20046;-79
2022/03/11 05:36:37;;;;;;;31.13;8.77;;;;;;;-2.21;35.13;100790.78;5011117;28;20069;-78
2022/03/11 05:39:03;;;;;;;27.63;7.70;;;;;;;-2.04;35.14;100789.78;4993763;28;20760;-78
2022/03/11 05:41:29;;;;;;;34.20;7.47;;;;;;;-1.95;34.88;100789.78;5005081;28;20085;-78
2022/03/11 05:43:56;;;;;;;22.67;7.20;;;;;;;-1.82;34.67;100791.97;5010623;28;20060;-78
2022/03/11 05:46:22;;;;;;;30.00;8.20;;;;;;;-1.71;34.51;100789.78;4994228;28;20149;-78
2022/03/11 05:48:48;;;;;;;23.70;7.33;;;;;;;-1.67;34.30;100786.75;5011814;28;20062;-78
2022/03/11 05:51:15;;;;;;;23.90;7.67;;;;;;;-1.55;34.14;100776.53;4993777;28;20429;-78
2022/03/11 05:53:41;;;;;;;28.67;9.15;;;;;;;-1.40;34.05;100782.00;4999960;28;20157;-79
2022/03/11 05:56:10;;;;;;;25.60;7.80;;;;;;;-1.42;33.88;100784.84;4963157;28;20056;-79
2022/03/11 05:58:36;;;;;;;23.87;6.73;;;;;;;-1.29;33.87;100785.16;5010887;28;20056;-78
2022/03/11 06:01:03;;;;;;;29.30;7.60;;;;;;;-1.34;33.75;100755.31;5007300;28;20563;-84
2022/03/11 06:03:29;;;;;;;30.88;7.28;;;;;;;-1.12;33.60;100786.97;4992754;28;20141;-78
2022/03/11 06:05:56;;;;;;;28.00;7.53;;;;;;;-1.06;33.80;100770.16;5005575;28;20054;-77
2022/03/11 06:08:23;;;;;;;19.35;6.57;;;;;;;-1.10;33.70;100774.19;5000909;28;20062;-77
2022/03/11 06:10:50;;;;;;;30.43;8.10;;;;;;;-1.21;33.40;100775.41;5009550;28;20054;-77
2022/03/11 06:13:17;;;;;;;37.42;13.05;;;;;;;-1.22;33.83;100769.19;4943964;28;20046;-77
2022/03/11 06:15:45;;;;;;;38.63;10.95;;;;;;;-1.06;33.70;100764.78;4987159;28;20058;-77
2022/03/11 06:18:13;;;;;;;38.65;10.55;;;;;;;-0.98;33.71;100763.91;5006294;28;20503;-78
2022/03/11 06:20:39;;;;;;;36.83;9.23;;;;;;;-0.93;33.47;100750.81;5009263;28;20056;-76
2022/03/11 06:23:05;;;;;;;24.80;8.30;;;;;;;-0.70;33.29;100760.75;5013006;28;20195;-77
2022/03/11 06:25:32;;;;;;;31.37;8.63;;;;;;;-0.61;33.21;100757.81;5014011;28;20153;-77
2022/03/11 06:27:58;;;;;;;32.65;8.20;;;;;;;-0.55;32.90;100748.22;5013015;28;20076;-78
2022/03/11 06:30:24;;;;;;;30.00;8.17;;;;;;;-0.38;32.81;100748.97;5000711;28;20595;-78
2022/03/11 06:32:51;;;;;;;26.00;7.47;;;;;;;-0.27;32.86;100747.69;4975867;28;20133;-79
2022/03/11 06:35:21;;;;;;;22.50;7.80;;;;;;;-0.23;32.81;100732.06;5008261;28;20054;-77
2022/03/11 06:38:09;;;;;;;20.23;7.50;;;;;;;-0.05;32.47;100737.94;4991575;28;20061;-78
2022/03/11 06:40:42;;;;;;;16.83;6.40;;;;;;;0.01;32.52;100733.69;5014061;28;20081;-79
2022/03/11 06:43:11;;;;;;;21.67;6.20;;;;;;;0.09;32.28;100736.28;5006075;28;20056;-78
2022/03/11 06:45:37;;;;;;;19.77;6.13;;;;;;;0.27;32.19;100729.72;5007825;28;20050;-77
2022/03/11 06:48:05;;;;;;;22.07;5.70;;;;;;;0.28;32.12;100728.69;5008704;28;20068;-76
2022/03/11 06:50:31;;;;;;;16.00;5.73;;;;;;;0.46;31.83;100732.88;5008379;28;20145;-77
2022/03/11 06:52:57;;;;;;;25.37;6.37;;;;;;;0.61;32.06;100722.13;5007627;28;20161;-77
2022/03/11 06:55:24;;;;;;;24.10;5.87;;;;;;;0.81;31.74;100727.78;5010058;28;20065;-77
2022/03/11 06:57:56;;;;;;;25.97;7.03;;;;;;;0.97;31.56;100729.44;4998652;28;20506;-80
2022/03/11 07:00:22;;;;;;;21.17;7.70;;;;;;;1.13;31.47;100726.50;5009277;28;20473;-79
2022/03/11 07:02:48;;;;;;;20.95;7.82;;;;;;;1.26;31.44;100730.38;4984048;28;20057;-79
2022/03/11 07:05:15;;;;;;;28.33;7.68;;;;;;;1.29;31.45;100727.31;4994628;28;20434;-77
2022/03/11 07:07:41;;;;;;;26.48;7.82;;;;;;;1.27;31.06;100718.59;5002270;28;20081;-77
2022/03/11 07:10:10;;;;;;;23.38;7.07;;;;;;;1.31;31.04;100702.88;5010070;28;20515;-78
2022/03/11 07:12:38;;;;;;;23.00;6.82;;;;;;;1.52;31.32;100712.84;5007704;28;20180;-76
2022/03/11 07:15:07;;;;;;;18.40;6.38;;;;;;;1.58;30.95;100703.16;5006249;28;20470;-74
2022/03/11 07:17:33;;;;;;;19.10;5.65;;;;;;;1.67;30.88;100713.59;5003142;28;20141;-74
2022/03/11 07:20:00;;;;;;;18.65;6.07;;;;;;;1.74;30.81;100710.97;5009057;28;20662;-74
2022/03/11 07:22:27;;;;;;;16.40;6.10;;;;;;;1.79;30.89;100718.47;5009374;28;20069;-74
2022/03/11 07:24:54;;;;;;;15.13;5.72;;;;;;;1.86;30.55;100719.38;5010616;28;20661;-76
2022/03/11 07:27:21;;;;;;;15.98;5.80;;;;;;;1.93;30.37;100712.16;5009760;28;20058;-74
2022/03/11 07:29:48;;;;;;;19.38;5.47;;;;;;;1.96;30.32;100706.38;5006218;28;20054;-74
2022/03/11 07:32:17;;;;;;;17.05;5.03;;;;;;;2.02;29.72;100702.03;5007059;28;20057;-74
2022/03/11 07:34:43;;;;;;;20.23;5.68;;;;;;;2.00;29.54;100709.50;5022370;28;20137;-74
2022/03/11 07:37:13;;;;;;;17.15;6.43;;;;;;;2.01;29.35;100700.38;5011440;28;20148;-77
2022/03/11 07:39:39;;;;;;;16.00;5.95;;;;;;;1.98;29.23;100700.78;5010758;28;20053;-75
2022/03/11 07:42:06;;;;;;;32.65;5.65;;;;;;;1.90;29.18;100690.16;4990081;28;20430;-75
2022/03/11 07:44:34;;;;;;;18.25;4.70;;;;;;;1.96;28.50;100694.75;5015279;28;20057;-80
2022/03/11 07:47:01;;;;;;;15.48;4.70;;;;;;;1.95;29.03;100701.16;4994957;28;20058;-81
2022/03/11 07:49:28;;;;;;;17.50;5.43;;;;;;;2.00;28.78;100697.91;5000777;28;20046;-79
2022/03/11 07:51:55;;;;;;;22.45;5.25;;;;;;;2.07;28.72;100696.91;5015138;28;20072;-78
2022/03/11 07:54:22;;;;;;;17.15;4.47;;;;;;;2.10;28.71;100692.97;5006252;28;20617;-79
2022/03/11 07:56:51;;;;;;;19.10;5.05;;;;;;;2.10;28.75;100695.66;4988661;28;20515;-79
2022/03/11 07:59:17;;;;;;;24.13;5.30;;;;;;;2.11;28.65;100687.38;5008772;28;20058;-81
2022/03/11 08:01:51;;;;;;;17.45;4.60;;;;;;;2.10;28.26;100680.31;5012570;28;20526;-80
2022/03/11 08:04:18;;;;;;;12.80;4.78;;;;;;;2.23;28.20;100674.19;4979983;28;20058;-80
2022/03/11 08:06:45;;;;;;;20.83;4.85;;;;;;;2.30;28.18;100676.91;5001937;28;20145;-81
2022/03/11 08:09:11;;;;;;;16.23;4.57;;;;;;;2.11;28.30;100632.59;4997157;28;20809;-82
2022/03/11 08:11:38;;;;;;;13.45;4.55;;;;;;;2.35;28.17;100674.47;4995903;28;20066;-81
2022/03/11 08:14:04;;;;;;;18.45;4.88;;;;;;;2.40;28.27;100665.75;4991298;28;20090;-81
2022/03/11 08:16:30;;;;;;;22.17;4.65;;;;;;;2.47;28.32;100661.25;5007008;28;20057;-77
2022/03/11 08:18:58;;;;;;;18.50;4.10;;;;;;;2.52;27.90;100661.47;4999088;28;20077;-75
2022/03/11 08:21:24;;;;;;;19.08;4.30;;;;;;;2.34;27.86;100636.88;5016025;28;20108;-77
2022/03/11 08:23:51;;;;;;;17.42;4.47;;;;;;;2.46;27.95;100651.47;5016797;28;20581;-77
2022/03/11 08:26:17;;;;;;;16.40;4.50;;;;;;;2.57;28.09;100654.63;4999041;28;20148;-78
2022/03/11 08:28:44;;;;;;;15.80;4.05;;;;;;;2.61;27.73;100651.31;5013418;28;20058;-77
2022/03/11 08:31:10;;;;;;;19.73;4.28;;;;;;;2.72;27.63;100655.31;4996922;28;20533;-77
2022/03/11 08:33:39;;;;;;;23.73;5.05;;;;;;;2.81;27.75;100637.06;4997404;28;20058;-77
2022/03/11 08:36:06;;;;;;;22.55;5.47;;;;;;;2.82;27.90;100607.16;4986284;28;20054;-77
2022/03/11 08:38:33;;;;;;;19.83;4.88;;;;;;;3.13;27.84;100642.78;5008782;28;20085;-77
2022/03/11 08:41:02;;;;;;;13.68;5.22;;;;;;;3.23;27.71;100628.88;5003865;28;20053;-75
2022/03/11 08:43:28;;;;;;;20.98;5.38;;;;;;;3.30;27.64;100629.69;5014324;28;20058;-78
2022/03/11 08:45:54;;;;;;;33.58;5.93;;;;;;;3.45;27.62;100625.97;4986330;28;20060;-76
2022/03/11 08:48:21;;;;;;;21.40;6.30;;;;;;;3.35;27.67;100623.66;5004429;28;20533;-77
2022/03/11 08:50:47;;;;;;;23.58;5.85;;;;;;;3.37;27.61;100629.69;5019380;28;20058;-79
2022/03/11 08:53:13;;;;;;;27.27;5.97;;;;;;;3.42;27.65;100624.50;5007911;28;20077;-76
2022/03/11 08:55:40;;;;;;;24.23;6.00;;;;;;;3.37;27.42;100624.28;5011814;28;20081;-76
2022/03/11 08:58:08;;;;;;;17.15;5.47;;;;;;;3.44;27.35;100618.91;4996288;28;20078;-76
2022/03/11 09:00:35;;;;;;;18.88;5.70;;;;;;;3.54;27.04;100627.44;5008378;28;20049;-75
2022/03/11 09:03:01;;;;;;;13.93;4.82;;;;;;;3.66;26.98;100625.75;5001362;28;20108;-76
2022/03/11 09:05:27;;;;;;;21.23;5.47;;;;;;;3.78;26.97;100623.25;5011762;28;20422;-76
2022/03/11 09:07:54;;;;;;;16.33;5.20;;;;;;;3.91;26.76;100619.69;4999001;28;20062;-76
2022/03/11 09:10:20;;;;;;;22.63;6.10;;;;;;;4.01;26.49;100615.75;5000395;28;20145;-76
2022/03/11 09:12:47;;;;;;;20.77;6.60;;;;;;;4.08;26.52;100614.69;5009558;28;20522;-76
2022/03/11 09:15:14;;;;;;;18.80;6.47;;;;;;;4.16;26.57;100619.03;5011471;28;20081;-75
2022/03/11 09:17:41;;;;;;;19.30;6.78;;;;;;;4.38;26.47;100614.19;5011916;28;20128;-76
2022/03/11 09:20:09;;;;;;;25.40;6.87;;;;;;;4.53;26.04;100602.25;4994370;28;20077;-76
2022/03/11 09:22:36;;;;;;;26.17;7.05;;;;;;;4.65;26.20;100588.84;4998899;28;20061;-77
2022/03/11 09:25:07;;;;;;;19.35;6.70;;;;;;;4.95;25.96;100597.22;4992890;28;20066;-75
2022/03/11 09:27:33;;;;;;;20.58;6.60;;;;;;;5.15;25.62;100596.28;5010317;28;20518;-75
2022/03/11 09:29:59;;;;;;;21.40;6.80;;;;;;;5.21;25.59;100597.25;5009377;28;20060;-76
2022/03/11 09:32:27;;;;;;;27.27;8.07;;;;;;;5.16;25.43;100584.38;5010985;28;20050;-75
2022/03/11 09:34:53;;;;;;;23.80;6.90;;;;;;;5.31;25.24;100586.78;4991779;28;20514;-75
2022/03/11 09:37:20;;;;;;;29.27;6.93;;;;;;;5.52;24.97;100590.13;5001811;28;20160;-76
2022/03/11 09:39:46;;;;;;;14.70;5.80;;;;;;;5.85;24.93;100585.47;5006646;28;20116;-75
2022/03/11 09:42:12;;;;;;;15.43;4.32;;;;;;;6.13;24.48;100576.03;5011300;28;20084;-74
2022/03/11 09:44:40;;;;;;;15.65;3.80;;;;;;;6.37;23.77;100569.66;4992392;28;20070;-74
2022/03/11 09:47:07;;;;;;;18.33;4.43;;;;;;;6.62;23.43;100573.31;5004078;28;20530;-74
2022/03/11 09:49:36;;;;;;;13.18;4.38;;;;;;;6.52;22.97;100563.84;4977982;28;20156;-73
2022/03/11 09:52:07;;;;;;;21.70;4.70;;;;;;;6.52;22.67;100565.72;4977881;28;20054;-73
2022/03/11 09:54:34;;;;;;;18.92;4.28;;;;;;;6.52;22.40;100561.13;5008425;28;20049;-75
2022/03/11 09:57:00;;;;;;;13.53;4.43;;;;;;;6.79;22.69;100549.91;5010612;28;20510;-74
2022/03/11 09:59:27;;;;;;;16.42;3.25;;;;;;;7.07;22.40;100539.44;4999383;28;20145;-76
2022/03/11 10:01:54;;;;;;;15.48;3.80;;;;;;;7.44;21.99;100550.13;5005112;28;20050;-77
2022/03/11 10:04:21;;;;;;;11.90;3.63;;;;;;;7.75;22.15;100545.41;4998884;28;20522;-78
2022/03/11 10:06:49;;;;;;;13.32;3.25;;;;;;;8.00;21.92;100528.00;5010243;28;20101;-77
2022/03/11 10:09:33;;;;;;;11.07;3.30;;;;;;;8.31;21.34;100527.78;4978203;28;20081;-76
2022/03/11 10:12:00;;;;;;;11.60;3.78;;;;;;;8.45;21.29;100510.06;4991839;28;20058;-82
2022/03/11 10:14:28;;;;;;;10.60;3.42;;;;;;;8.71;20.46;100524.22;5010754;28;20061;-82
2022/03/11 10:16:55;;;;;;;9.52;3.38;;;;;;;8.93;20.26;100520.78;5008540;28;20263;-79
2022/03/11 10:19:22;;;;;;;10.00;3.63;;;;;;;9.07;20.04;100526.75;5013530;28;20132;-79
2022/03/11 10:21:52;;;;;;;11.50;3.53;;;;;;;9.24;19.62;100521.28;4993733;28;20596;-81
2022/03/11 10:24:20;;;;;;;11.82;3.85;;;;;;;9.29;18.96;100520.56;5009166;28;20050;-79
2022/03/11 10:26:48;;;;;;;11.13;3.75;;;;;;;9.43;18.88;100521.88;4993007;28;20062;-79
2022/03/11 10:29:17;;;;;;;12.80;3.78;;;;;;;9.62;18.73;100507.94;5009552;28;20104;-80
2022/03/11 10:31:46;;;;;;;12.90;4.03;;;;;;;9.82;18.63;100498.38;4992888;28;20065;-79
2022/03/11 10:34:18;;;;;;;11.65;4.15;;;;;;;9.95;18.70;100502.66;4991908;28;20060;-77
2022/03/11 10:36:51;;;;;;;17.52;4.78;;;;;;;10.01;18.52;100505.19;4998776;28;20046;-80
2022/03/11 10:39:18;;;;;;;15.15;4.30;;;;;;;10.13;18.38;100491.41;5008954;28;20065;-84
2022/03/11 10:41:46;;;;;;;12.85;5.55;;;;;;;10.18;17.97;100498.84;5008730;28;20062;-79
2022/03/11 10:44:13;;;;;;;13.63;4.32;;;;;;;10.28;17.94;100489.94;5009828;28;20060;-80
2022/03/11 10:46:40;;;;;;;14.02;4.70;;;;;;;10.47;17.72;100490.47;4991747;28;20100;-79
2022/03/11 10:49:06;;;;;;;14.55;4.65;;;;;;;10.60;17.55;100487.28;4993221;28;20046;-81
2022/03/11 10:51:35;;;;;;;13.18;4.50;;;;;;;10.76;17.94;100474.59;5005217;28;20142;-79
2022/03/11 10:54:04;;;;;;;13.75;4.20;;;;;;;10.74;17.92;100462.25;5007790;28;20069;-77
2022/03/11 10:56:34;;;;;;;11.82;4.15;;;;;;;10.93;17.66;100465.44;5010029;28;20108;-74
2022/03/11 10:59:03;;;;;;;15.05;4.63;;;;;;;10.92;17.69;100456.38;4993417;28;20096;-75
2022/03/11 11:01:37;;;;;;;10.43;4.15;;;;;;;11.11;17.48;100471.59;5006860;28;20046;-75
2022/03/11 11:04:05;;;;;;;12.23;4.65;;;;;;;11.34;17.54;100470.38;4992696;28;20173;-74
2022/03/11 11:06:31;;;;;;;;;;;;;;;11.60;17.57;100459.59;4994126;28;20057;-76
2022/03/11 11:08:58;;;;;;;16.08;4.90;;;;;;;11.70;17.06;100456.09;4996101;28;19929;-76
2022/03/11 11:11:25;;;;;;;13.07;4.10;;;;;;;11.50;16.88;100446.69;5006332;28;20144;-75
2022/03/11 11:13:52;;;;;;;10.63;3.95;;;;;;;11.56;16.94;100453.00;4971109;28;20056;-76
2022/03/11 11:16:23;;;;;;;14.75;4.80;;;;;;;11.84;16.83;100443.56;5007820;28;20062;-74
2022/03/11 11:18:55;;;;;;;12.00;4.00;;;;;;;11.92;16.51;100437.53;5010097;28;20046;-75
2022/03/11 11:21:24;;;;;;;13.88;5.30;;;;;;;12.04;16.22;100436.53;5009114;28;20468;-75